createdAt,value
2023-05-02T08:24:54.045Z,143837.97
2023-05-02T08:29:58.570Z,143795.72
2023-05-02T08:35:03.789Z,143709.94
2023-05-02T08:40:13.030Z,143585.63
2023-05-02T08:45:16.942Z,143595.59
2023-05-02T08:50:20.821Z,143644.03
2023-05-02T08:55:27.832Z,143712.41
2023-05-02T09:00:31.753Z,143727.31
2023-05-02T09:05:37.552Z,143833.00
2023-05-02T09:10:42.991Z,143852.91
2023-05-02T09:15:57.892Z,143872.81
2023-05-02T09:21:01.893Z,143779.53
2023-05-02T09:26:21.835Z,143685.06
2023-05-02T09:31:49.588Z,143736.03
2023-05-02T09:36:51.894Z,143764.63
2023-05-02T09:41:59.547Z,143882.75
2023-05-02T09:47:06.837Z,143852.91
2023-05-02T09:52:13.794Z,143778.28
2023-05-02T09:57:20.913Z,143906.38
2023-05-02T10:02:25.503Z,144029.53
2023-05-02T10:07:29.190Z,143879.03
2023-05-02T10:12:52.342Z,143946.19
2023-05-02T10:17:57.125Z,143890.19
2023-05-02T10:23:01.491Z,143881.50
2023-05-02T10:28:06.654Z,143937.47
2023-05-02T10:33:14.544Z,143877.78
2023-05-02T10:38:21.090Z,143668.91
2023-05-02T10:43:32.080Z,143524.78
2023-05-02T10:48:35.602Z,143393.16
2023-05-02T10:53:40.133Z,143300.03
2023-05-02T10:58:44.993Z,143194.59
2023-05-02T11:03:55.288Z,143162.28
2023-05-02T11:09:16.426Z,143063.09
2023-05-02T11:14:34.571Z,143033.34
2023-05-02T11:20:01.720Z,143037.06
2023-05-02T11:25:07.265Z,143198.31
2023-05-02T11:30:14.853Z,143373.28
2023-05-02T11:35:18.762Z,143476.31
2023-05-02T11:40:23.969Z,143262.81
2023-05-02T11:45:34.034Z,143444.03
2023-05-02T11:50:48.701Z,143273.97
2023-05-02T11:55:54.743Z,143164.78
2023-05-02T12:01:12.433Z,143171.00
2023-05-02T12:06:16.424Z,143216.88
2023-05-02T12:11:21.513Z,143321.16
2023-05-02T12:16:24.881Z,143323.63
2023-05-02T12:21:29.796Z,143329.81
2023-05-02T12:26:34.558Z,143411.75
2023-05-02T12:31:37.901Z,143454.00
2023-05-02T12:36:45.183Z,143466.41
2023-05-02T12:41:49.918Z,143255.38
2023-05-02T12:47:00.423Z,143324.88
2023-05-02T12:52:03.808Z,143378.25
2023-05-02T12:57:09.072Z,143144.97
2023-05-02T13:02:12.459Z,143236.75
2023-05-02T13:07:15.807Z,143398.13
2023-05-02T13:12:20.531Z,143348.47
2023-05-02T13:17:23.916Z,143169.78
2023-05-02T13:22:27.325Z,143092.84
2023-05-02T13:27:34.066Z,143102.75
2023-05-02T13:32:37.531Z,143265.28
2023-05-02T13:37:41.402Z,143012.25
2023-05-02T13:42:46.224Z,143079.19
2023-05-02T13:47:49.585Z,143018.44
2023-05-02T13:52:52.900Z,142915.56
2023-05-02T13:57:57.529Z,142923.00
2023-05-02T14:03:00.998Z,142913.09
2023-05-02T14:08:04.466Z,142952.75
2023-05-02T14:13:09.201Z,142842.44
2023-05-02T14:18:12.640Z,142947.78
2023-05-02T14:23:16.411Z,142784.22
2023-05-02T14:28:21.197Z,142792.88
2023-05-02T14:33:24.520Z,142884.59
2023-05-02T14:38:27.784Z,142796.56
2023-05-02T14:43:32.431Z,142885.84
2023-05-02T14:48:35.716Z,142926.72
2023-05-02T14:53:39.313Z,142904.38
2023-05-02T14:58:43.950Z,142847.38
2023-05-02T15:04:04.306Z,142787.91
2023-05-02T15:09:08.973Z,142884.59
2023-05-02T15:14:13.767Z,142887.06
2023-05-02T15:19:17.098Z,142915.56
2023-05-02T15:24:20.408Z,143029.63
2023-05-02T15:29:25.000Z,143100.28
2023-05-02T15:34:28.689Z,143095.34
2023-05-02T15:39:31.987Z,143113.94
2023-05-02T15:44:39.211Z,143079.19
2023-05-02T15:49:42.538Z,143111.47
2023-05-02T15:54:45.904Z,143097.81
2023-05-02T15:59:50.756Z,142869.69
2023-05-02T16:04:54.102Z,142879.59
2023-05-02T16:09:57.414Z,142869.69
2023-05-02T16:15:03.959Z,142778.03
2023-05-02T16:20:08.715Z,142660.38
2023-05-02T16:25:13.250Z,142682.63
2023-05-02T16:30:18.224Z,142747.06
2023-05-02T16:35:21.886Z,142696.28
2023-05-02T16:40:27.378Z,142655.38
2023-05-02T16:45:33.354Z,142618.25
2023-05-02T16:50:36.696Z,142597.19
2023-05-02T16:55:40.410Z,142567.50
2023-05-02T17:00:47.743Z,142569.97
2023-05-02T17:05:53.007Z,142544.00
2023-05-02T17:10:56.833Z,142558.84
2023-05-02T17:16:02.563Z,142589.78
2023-05-02T17:21:06.120Z,142602.19
2023-05-02T17:26:14.370Z,142631.91
2023-05-02T17:31:19.565Z,142649.22
2023-05-02T17:36:22.890Z,142690.09
2023-05-02T17:41:26.652Z,142716.09
2023-05-02T17:46:31.772Z,142690.09
2023-05-02T17:51:37.705Z,142698.75
2023-05-02T17:56:41.089Z,142688.84
2023-05-02T18:01:46.105Z,142671.50
2023-05-02T18:06:50.773Z,142678.91
2023-05-02T18:11:55.359Z,142685.09
2023-05-02T18:17:09.161Z,142660.38
2023-05-02T18:22:14.029Z,142660.38
2023-05-02T18:27:17.887Z,142643.03
2023-05-02T18:32:22.721Z,142545.25
2023-05-02T18:37:31.138Z,142560.06
2023-05-02T18:42:35.051Z,142586.06
2023-05-02T18:47:40.099Z,142583.59
2023-05-02T18:52:43.518Z,142600.91
2023-05-02T18:57:46.796Z,142602.19
2023-05-02T19:02:58.111Z,142568.72
2023-05-02T19:08:06.394Z,142571.19
2023-05-02T19:13:13.268Z,142557.59
2023-05-02T19:18:18.355Z,142567.50
2023-05-02T19:23:24.165Z,142589.78
2023-05-02T19:28:27.506Z,142560.06
2023-05-02T19:33:32.183Z,142577.44
2023-05-02T19:38:35.594Z,142566.25
2023-05-02T19:43:41.267Z,142565.03
2023-05-02T19:48:48.716Z,142548.97
2023-05-02T19:53:54.840Z,142520.53
2023-05-02T19:59:01.207Z,142498.25
2023-05-02T20:04:05.881Z,142505.66
2023-05-02T20:09:09.235Z,142532.88
2023-05-02T20:14:12.556Z,142501.94
2023-05-02T20:19:21.880Z,142506.91
2023-05-02T20:24:25.571Z,142475.97
2023-05-02T20:29:28.937Z,142448.75
2023-05-02T20:34:39.131Z,142447.50
2023-05-02T20:39:45.440Z,142437.63
2023-05-02T20:44:55.795Z,142412.88
2023-05-02T20:50:03.600Z,142396.78
2023-05-02T20:55:07.861Z,142391.84
2023-05-02T21:00:13.560Z,142357.22
2023-05-02T21:05:18.504Z,142295.38
2023-05-02T21:10:22.421Z,142326.28
2023-05-02T21:15:25.952Z,142327.53
2023-05-02T21:20:30.884Z,142322.59
2023-05-02T21:25:36.383Z,142323.81
2023-05-02T21:30:39.845Z,142327.53
